createdAt,value
2019-02-05T00:04:36.963Z,11.27
2019-02-05T00:07:07.685Z,12.27
2019-02-05T00:09:38.521Z,12.10
2019-02-05T00:12:09.415Z,13.07
2019-02-05T00:14:40.371Z,12.23
2019-02-05T00:17:11.313Z,11.97
2019-02-05T00:19:41.980Z,13.63
2019-02-05T00:22:12.866Z,11.20
2019-02-05T00:24:44.166Z,11.80
2019-02-05T00:27:14.968Z,11.33
2019-02-05T00:29:45.853Z,11.50
2019-02-05T00:32:19.163Z,13.60
2019-02-05T00:34:50.011Z,11.10
2019-02-05T00:37:20.906Z,12.33
2019-02-05T00:39:52.439Z,12.80
2019-02-05T00:42:23.444Z,11.87
2019-02-05T00:44:54.090Z,13.10
2019-02-05T00:47:25.102Z,10.40
2019-02-05T00:49:55.738Z,12.13
2019-02-05T00:52:28.058Z,13.10
2019-02-05T00:54:59.233Z,11.53
2019-02-05T00:57:29.804Z,11.03
2019-02-05T01:00:00.448Z,11.03
2019-02-05T01:02:31.308Z,11.93
2019-02-05T01:05:02.414Z,11.60
2019-02-05T01:07:33.253Z,11.17
2019-02-05T01:10:05.153Z,11.30
2019-02-05T01:12:36.034Z,10.77
2019-02-05T01:15:11.176Z,11.47
2019-02-05T01:17:41.927Z,9.83
2019-02-05T01:20:19.704Z,11.67
2019-02-05T01:22:49.049Z,11.57
2019-02-05T01:25:21.295Z,11.03
2019-02-05T01:27:52.286Z,12.70
2019-02-05T01:30:26.484Z,12.57
2019-02-05T01:32:57.305Z,12.60
2019-02-05T01:35:27.961Z,9.67
2019-02-05T01:37:58.588Z,10.50
2019-02-05T01:40:29.466Z,13.33
2019-02-05T01:43:00.173Z,11.70
2019-02-05T01:45:30.937Z,12.13
2019-02-05T01:48:01.543Z,10.13
2019-02-05T01:50:33.833Z,11.33
2019-02-05T01:53:06.579Z,13.00
2019-02-05T01:55:37.426Z,11.40
2019-02-05T01:58:08.250Z,9.80
2019-02-05T02:00:40.093Z,10.37
2019-02-05T02:03:10.933Z,10.97
2019-02-05T02:05:42.114Z,8.93
2019-02-05T02:08:12.986Z,11.70
2019-02-05T02:10:43.575Z,11.00
2019-02-05T02:13:14.016Z,9.07
2019-02-05T02:15:44.706Z,9.00
2019-02-05T02:18:15.495Z,8.07
2019-02-05T02:20:47.240Z,7.27
2019-02-05T02:23:17.822Z,9.37
2019-02-05T02:25:48.425Z,8.63
2019-02-05T02:28:19.341Z,8.57
2019-02-05T02:30:50.146Z,8.80
2019-02-05T02:33:20.960Z,8.83
2019-02-05T02:35:51.615Z,8.60
2019-02-05T02:38:22.409Z,8.47
2019-02-05T02:40:52.955Z,9.73
2019-02-05T02:43:23.643Z,8.60
2019-02-05T02:45:54.840Z,8.63
2019-02-05T02:48:25.428Z,9.10
2019-02-05T02:50:56.090Z,8.10
2019-02-05T02:53:26.713Z,8.43
2019-02-05T02:55:57.434Z,7.53
2019-02-05T02:58:28.272Z,7.80
2019-02-05T03:00:58.969Z,7.27
2019-02-05T03:03:29.752Z,7.17
2019-02-05T03:06:00.638Z,9.03
2019-02-05T03:08:31.252Z,6.97
2019-02-05T03:11:01.859Z,8.67
2019-02-05T03:13:32.858Z,7.43
2019-02-05T03:16:04.139Z,7.43
2019-02-05T03:18:34.822Z,6.10
2019-02-05T03:21:06.563Z,7.30
2019-02-05T03:23:37.040Z,8.23
2019-02-05T03:26:07.792Z,7.57
2019-02-05T03:28:38.329Z,6.53
2019-02-05T03:31:08.933Z,7.40
2019-02-05T03:33:39.924Z,8.90
2019-02-05T03:36:10.594Z,8.07
2019-02-05T03:38:41.429Z,5.57
2019-02-05T03:41:12.298Z,6.83
2019-02-05T03:43:43.168Z,5.93
2019-02-05T03:46:14.156Z,6.90
2019-02-05T03:48:47.758Z,6.40
2019-02-05T03:51:25.955Z,7.40
2019-02-05T03:54:06.519Z,6.57
2019-02-05T03:56:57.955Z,6.37
2019-02-05T03:59:56.954Z,5.47
2019-02-05T04:02:48.371Z,7.30
2019-02-05T04:05:41.180Z,8.27
2019-02-05T04:08:31.380Z,6.10
2019-02-05T04:11:22.371Z,7.47
2019-02-05T04:14:09.377Z,5.63
2019-02-05T04:20:39.141Z,5.43
2019-02-05T04:24:00.906Z,4.73
2019-02-05T04:27:17.278Z,5.70
2019-02-05T04:30:31.335Z,5.23
2019-02-05T04:33:09.492Z,5.97
2019-02-05T04:36:04.960Z,5.93
2019-02-05T04:38:47.489Z,6.90
2019-02-05T04:41:41.929Z,5.63
2019-02-05T04:44:47.158Z,6.00
2019-02-05T04:47:51.909Z,6.17
2019-02-05T08:13:57.234Z,4.00
2019-02-05T08:16:27.817Z,3.67
2019-02-05T08:18:58.336Z,3.80
2019-02-05T08:21:28.862Z,4.17
2019-02-05T08:23:59.392Z,4.30
2019-02-05T08:26:29.933Z,3.33
2019-02-05T08:29:00.439Z,3.90
2019-02-05T08:31:31.218Z,3.60
2019-02-05T08:34:03.293Z,3.70
2019-02-05T08:36:33.884Z,3.13
2019-02-05T08:39:06.772Z,3.00
2019-02-05T08:41:37.185Z,3.63
2019-02-05T08:44:07.680Z,3.73
2019-02-05T08:46:38.322Z,3.33
2019-02-05T08:49:08.808Z,3.60
2019-02-05T08:51:39.231Z,3.67
2019-02-05T08:54:09.663Z,4.10
2019-02-05T08:56:40.189Z,3.33
2019-02-05T08:59:10.658Z,4.37
2019-02-05T09:01:41.464Z,3.60
2019-02-05T09:04:11.963Z,3.27
2019-02-05T09:06:42.406Z,3.47
2019-02-05T09:09:12.871Z,3.70
2019-02-05T09:11:43.450Z,4.00
2019-02-05T09:14:13.897Z,4.00
2019-02-05T09:16:44.523Z,3.30
2019-02-05T09:19:15.229Z,3.55
2019-02-05T09:21:46.227Z,3.60
2019-02-05T09:24:17.275Z,3.47
2019-02-05T09:26:48.289Z,3.35
2019-02-05T09:29:18.719Z,4.13
2019-02-05T09:31:49.177Z,3.77
2019-02-05T09:34:20.139Z,5.00
2019-02-05T09:36:51.224Z,5.70
2019-02-05T09:39:21.655Z,6.20
2019-02-05T09:41:52.974Z,5.17
2019-02-05T09:44:23.982Z,4.33
2019-02-05T09:46:55.003Z,4.28
2019-02-05T09:49:26.271Z,4.37
2019-02-05T09:51:56.708Z,4.10
2019-02-05T09:54:27.814Z,4.42
2019-02-05T09:56:58.234Z,4.10
2019-02-05T09:59:29.059Z,4.00
2019-02-05T10:01:59.506Z,4.70
2019-02-05T10:04:29.943Z,3.67
2019-02-05T10:07:00.375Z,4.67
2019-02-05T10:09:30.862Z,4.60
2019-02-05T10:12:02.253Z,5.25
2019-02-05T10:14:33.045Z,4.87
2019-02-05T10:17:03.514Z,4.83
2019-02-05T10:19:33.971Z,4.73
2019-02-05T10:22:04.743Z,4.73
2019-02-05T10:24:35.262Z,4.90
2019-02-05T10:27:05.925Z,3.97
2019-02-05T10:29:36.623Z,4.30
2019-02-05T10:32:07.076Z,3.70
2019-02-05T10:34:37.491Z,4.40
2019-02-05T10:37:07.942Z,4.10
2019-02-05T10:39:38.387Z,4.23
2019-02-05T10:42:08.890Z,3.70
2019-02-05T10:44:39.517Z,3.80
2019-02-05T10:47:09.958Z,3.87
2019-02-05T10:49:40.385Z,3.90
2019-02-05T10:52:11.482Z,3.80
2019-02-05T10:54:41.958Z,3.70
2019-02-05T10:57:12.439Z,3.95
2019-02-05T10:59:43.646Z,3.35
2019-02-05T11:02:14.800Z,3.67
2019-02-05T11:04:45.234Z,3.25
2019-02-05T11:07:16.279Z,3.50
2019-02-05T11:09:47.335Z,3.42
2019-02-05T11:12:17.757Z,2.90
2019-02-05T11:14:48.806Z,2.87
2019-02-05T11:17:19.901Z,2.90
2019-02-05T11:19:50.918Z,3.40
2019-02-05T11:22:21.943Z,3.55
2019-02-05T11:24:52.996Z,3.50
2019-02-05T11:27:24.040Z,3.47
2019-02-05T11:29:55.061Z,3.20
2019-02-05T11:32:26.078Z,4.83
2019-02-05T11:34:57.077Z,4.00
2019-02-05T11:37:28.085Z,3.30
2019-02-05T11:39:59.123Z,4.20
2019-02-05T11:42:30.341Z,4.20
2019-02-05T11:45:01.354Z,3.08
2019-02-05T11:47:32.398Z,3.35
2019-02-05T11:50:04.930Z,3.22
2019-02-05T11:52:35.963Z,2.77
2019-02-05T11:55:11.945Z,2.90
2019-02-05T11:57:43.052Z,3.12
2019-02-05T12:00:31.856Z,2.87
2019-02-05T12:02:52.715Z,2.80
2019-02-05T12:05:23.738Z,3.65
2019-02-05T12:07:55.023Z,3.40
2019-02-05T12:10:26.046Z,3.47
2019-02-05T12:12:57.093Z,3.40
2019-02-05T12:15:28.136Z,3.50
2019-02-05T12:17:59.148Z,3.80
2019-02-05T12:20:30.434Z,3.15
2019-02-05T12:23:02.563Z,3.80
2019-02-05T12:25:33.594Z,3.55
2019-02-05T12:28:05.323Z,3.20
2019-02-05T12:30:45.371Z,4.00
2019-02-05T12:33:16.255Z,3.60
2019-02-05T12:35:47.486Z,3.80
2019-02-05T12:38:18.586Z,3.92
2019-02-05T12:40:49.609Z,3.83
2019-02-05T12:43:20.635Z,4.25
2019-02-05T12:45:51.711Z,3.80
2019-02-05T12:48:22.735Z,3.80
2019-02-05T12:50:53.766Z,3.83
2019-02-05T12:53:24.838Z,3.92
2019-02-05T12:55:55.863Z,4.50
2019-02-05T12:58:27.222Z,4.85
2019-02-05T13:01:01.186Z,4.60
2019-02-05T13:03:32.099Z,4.05
2019-02-05T13:06:03.147Z,4.17
2019-02-05T13:08:34.251Z,4.08
2019-02-05T13:11:05.427Z,4.20
2019-02-05T13:13:36.603Z,4.37
2019-02-05T13:16:07.967Z,3.87
2019-02-05T13:18:39.033Z,4.33
2019-02-05T13:21:09.534Z,4.20
2019-02-05T13:23:40.289Z,3.83
2019-02-05T13:26:11.084Z,4.25
2019-02-05T13:28:41.845Z,4.60
2019-02-05T13:31:12.555Z,4.70
2019-02-05T13:33:43.428Z,4.00
2019-02-05T13:36:14.539Z,3.83
2019-02-05T13:38:45.271Z,4.22
2019-02-05T13:41:16.319Z,3.85
2019-02-05T13:43:47.497Z,4.35
2019-02-05T13:46:17.899Z,3.98
2019-02-05T13:48:48.407Z,3.37
2019-02-05T13:51:18.902Z,4.10
2019-02-05T13:53:49.357Z,3.98
2019-02-05T13:56:19.919Z,4.20
2019-02-05T13:58:50.428Z,3.67
2019-02-05T14:01:21.656Z,4.05
2019-02-05T14:03:52.479Z,3.55
2019-02-05T14:06:22.987Z,4.03
2019-02-05T14:08:53.601Z,3.70
2019-02-05T14:11:24.644Z,3.50
2019-02-05T14:13:55.257Z,3.60
2019-02-05T14:16:26.945Z,3.25
2019-02-05T14:18:57.399Z,3.40
2019-02-05T14:21:27.899Z,3.70
2019-02-05T14:23:58.375Z,4.20
2019-02-05T14:26:29.052Z,3.58
2019-02-05T14:28:59.579Z,3.50
2019-02-05T14:31:31.631Z,3.33
2019-02-05T14:34:02.223Z,3.20
2019-02-05T14:36:33.012Z,3.30
2019-02-05T14:39:05.063Z,3.33
2019-02-05T14:41:35.617Z,3.53
2019-02-05T14:44:06.263Z,3.23
2019-02-05T14:46:36.745Z,3.13
2019-02-05T14:49:07.214Z,3.30
2019-02-05T14:51:37.800Z,3.10
2019-02-05T14:54:08.340Z,3.50
2019-02-05T14:56:38.816Z,3.13
2019-02-05T14:59:09.824Z,3.33
2019-02-05T15:01:43.224Z,3.00
2019-02-05T15:04:12.555Z,3.17
2019-02-05T15:06:43.709Z,2.93
2019-02-05T15:09:14.214Z,2.80
2019-02-05T15:11:44.747Z,2.63
2019-02-05T15:14:15.296Z,2.90
2019-02-05T15:16:46.007Z,2.80
2019-02-05T15:19:16.611Z,2.73
2019-02-05T15:21:48.062Z,3.13
2019-02-05T15:24:18.639Z,3.07
2019-02-05T15:26:49.142Z,2.83
2019-02-05T15:29:20.419Z,3.03
2019-02-05T15:31:54.610Z,2.73
2019-02-05T15:34:24.624Z,2.73
2019-02-05T15:36:55.448Z,3.00
2019-02-05T15:39:26.412Z,2.77
2019-02-05T15:41:58.175Z,3.00
2019-02-05T15:44:29.339Z,2.97
2019-02-05T15:47:05.540Z,3.10
2019-02-05T15:49:39.227Z,2.80
2019-02-05T15:55:25.462Z,3.23
2019-02-05T15:58:14.638Z,2.93
2019-02-05T16:01:12.818Z,2.70
